createdAt,value
2023-01-10T00:00:44.123Z,1.77
2023-01-10T00:03:12.846Z,1.50
2023-01-10T00:05:41.555Z,1.20
2023-01-10T00:08:09.734Z,1.20
2023-01-10T00:10:37.723Z,1.50
2023-01-10T00:13:23.119Z,1.53
2023-01-10T00:15:53.159Z,1.93
2023-01-10T00:18:21.186Z,1.47
2023-01-10T00:20:50.049Z,1.60
2023-01-10T00:23:24.403Z,1.13
2023-01-10T00:25:52.356Z,1.63
2023-01-10T00:28:20.698Z,1.40
2023-01-10T00:30:51.380Z,1.53
2023-01-10T00:33:20.834Z,1.40
2023-01-10T00:35:48.979Z,1.00
2023-01-10T00:38:17.162Z,1.50
2023-01-10T00:40:45.499Z,1.40
2023-01-10T00:43:31.421Z,0.90
2023-01-10T00:45:59.472Z,1.40
2023-01-10T00:48:28.771Z,1.37
2023-01-10T00:50:56.728Z,1.20
2023-01-10T00:53:24.674Z,2.70
2023-01-10T00:55:52.562Z,1.10
2023-01-10T00:58:20.458Z,1.23
2023-01-10T01:00:49.871Z,2.33
2023-01-10T01:03:19.522Z,2.97
2023-01-10T01:05:49.763Z,1.40
2023-01-10T01:08:18.689Z,1.40
2023-01-10T01:10:47.159Z,1.40
2023-01-10T01:13:17.589Z,1.60
2023-01-10T01:15:45.587Z,1.30
2023-01-10T01:18:15.261Z,1.10
2023-01-10T01:20:43.594Z,1.00
2023-01-10T01:23:13.035Z,2.70
2023-01-10T01:25:41.052Z,1.13
2023-01-10T01:28:09.172Z,1.37
2023-01-10T01:30:37.072Z,1.00
2023-01-10T01:33:05.096Z,1.20
2023-01-10T01:35:33.697Z,1.37
2023-01-10T01:38:01.632Z,0.90
2023-01-10T01:40:31.097Z,0.90
2023-01-10T01:42:59.011Z,0.90
2023-01-10T01:45:36.650Z,1.80
2023-01-10T01:48:18.224Z,0.80
2023-01-10T01:50:49.940Z,1.00
2023-01-10T01:53:21.384Z,1.10
2023-01-10T01:55:52.952Z,0.90
2023-01-10T01:58:23.343Z,1.10
2023-01-10T02:00:51.325Z,1.07
2023-01-10T02:03:19.612Z,1.47
2023-01-10T02:05:47.958Z,0.97
2023-01-10T02:08:15.843Z,0.90
2023-01-10T02:10:48.863Z,1.20
2023-01-10T02:13:20.793Z,1.57
2023-01-10T02:15:48.803Z,0.90
2023-01-10T02:18:16.747Z,1.30
2023-01-10T02:20:54.691Z,0.80
2023-01-10T02:23:45.394Z,1.27
2023-01-10T02:26:46.151Z,0.90
2023-01-10T02:29:53.904Z,0.90
2023-01-10T02:32:41.991Z,0.90
2023-01-10T02:35:24.238Z,1.17
2023-01-10T02:37:59.757Z,1.00
2023-01-10T02:40:33.585Z,0.80
2023-01-10T02:43:07.213Z,0.97
2023-01-10T02:45:38.272Z,0.97
2023-01-10T02:48:08.078Z,1.00
2023-01-10T02:50:51.811Z,1.40
2023-01-10T02:53:25.025Z,1.20
2023-01-10T02:56:31.086Z,0.90
2023-01-10T02:59:25.603Z,0.83
2023-01-10T03:01:57.511Z,1.10
2023-01-10T03:04:34.032Z,1.17
2023-01-10T03:07:11.520Z,1.00
2023-01-10T03:09:46.194Z,0.90
2023-01-10T03:12:17.439Z,0.80
2023-01-10T03:14:46.667Z,1.90
2023-01-10T03:17:15.254Z,1.37
2023-01-10T03:19:47.265Z,1.10
2023-01-10T03:22:15.901Z,1.13
2023-01-10T03:24:46.074Z,0.70
2023-01-10T03:27:19.993Z,1.27
2023-01-10T03:29:52.878Z,1.00
2023-01-10T03:32:23.453Z,0.73
2023-01-10T03:34:53.052Z,1.17
2023-01-10T03:37:27.538Z,0.83
2023-01-10T03:40:01.120Z,0.70
2023-01-10T03:42:51.420Z,0.70
2023-01-10T03:45:22.139Z,1.30
2023-01-10T03:47:52.306Z,1.10
2023-01-10T03:50:23.938Z,1.03
2023-01-10T03:52:51.945Z,1.13
2023-01-10T03:55:22.027Z,0.83
2023-01-10T03:57:50.081Z,0.70
2023-01-10T04:00:18.980Z,1.10
2023-01-10T04:02:46.933Z,1.00
2023-01-10T04:05:14.903Z,0.70
2023-01-10T04:07:44.272Z,1.10
2023-01-10T04:10:12.726Z,1.57
2023-01-10T04:12:40.655Z,1.07
2023-01-10T04:15:09.406Z,0.90
2023-01-10T04:17:37.291Z,1.73
2023-01-10T04:20:05.997Z,2.30
2023-01-10T04:22:33.856Z,2.57
2023-01-10T04:25:03.199Z,2.40
2023-01-10T04:27:31.123Z,2.27
2023-01-10T04:29:59.025Z,1.80
2023-01-10T04:32:26.919Z,1.60
2023-01-10T04:34:54.961Z,1.23
2023-01-10T04:37:22.901Z,1.10
2023-01-10T04:39:50.799Z,1.30
2023-01-10T04:42:20.076Z,1.20
2023-01-10T04:44:47.999Z,1.30
2023-01-10T04:47:15.887Z,0.83
2023-01-10T04:49:43.815Z,1.10
2023-01-10T04:52:11.735Z,0.93
2023-01-10T04:54:39.632Z,0.70
2023-01-10T04:57:07.619Z,0.90
2023-01-10T04:59:36.978Z,0.87
2023-01-10T05:02:04.946Z,1.40
2023-01-10T05:04:32.961Z,1.70
2023-01-10T05:07:00.883Z,1.43
2023-01-10T05:09:28.768Z,1.43
2023-01-10T05:11:56.673Z,1.13
2023-01-10T05:14:24.578Z,1.23
2023-01-10T05:16:53.909Z,1.17
2023-01-10T05:19:21.859Z,1.50
2023-01-10T05:21:50.201Z,3.40
2023-01-10T05:24:18.194Z,3.97
2023-01-10T05:26:46.129Z,1.80
2023-01-10T05:29:14.497Z,1.47
2023-01-10T05:31:42.493Z,2.20
2023-01-10T05:34:13.834Z,1.70
2023-01-10T05:36:41.878Z,2.00
2023-01-10T05:39:09.853Z,1.70
2023-01-10T05:41:37.738Z,1.10
2023-01-10T05:44:05.724Z,1.90
2023-01-10T05:46:33.663Z,2.47
2023-01-10T05:49:01.607Z,1.90
2023-01-10T05:51:30.964Z,1.90
2023-01-10T05:53:59.393Z,2.03
2023-01-10T05:56:27.345Z,2.20
2023-01-10T05:59:05.349Z,1.40
2023-01-10T06:01:35.906Z,1.40
2023-01-10T06:04:04.048Z,1.10
2023-01-10T06:06:34.416Z,1.70
2023-01-10T06:09:02.599Z,1.40
2023-01-10T06:11:30.556Z,1.33
2023-01-10T06:13:58.517Z,1.50
2023-01-10T06:16:26.664Z,1.50
2023-01-10T06:18:54.554Z,1.13
2023-01-10T06:21:22.517Z,1.47
2023-01-10T06:23:51.936Z,1.50
2023-01-10T06:26:19.929Z,2.00
2023-01-10T06:28:48.012Z,2.07
2023-01-10T06:31:15.974Z,1.50
2023-01-10T06:33:44.480Z,1.50
2023-01-10T06:36:12.523Z,1.80
2023-01-10T06:38:40.520Z,1.67
2023-01-10T06:41:13.924Z,9.20
2023-01-10T06:43:42.215Z,3.60
2023-01-10T06:46:11.152Z,1.50
2023-01-10T06:48:39.240Z,1.60
2023-01-10T06:51:07.459Z,1.50
2023-01-10T06:53:35.455Z,1.60
2023-01-10T06:56:04.172Z,1.20
2023-01-10T06:58:34.875Z,2.03
2023-01-10T07:01:03.068Z,2.00
2023-01-10T07:03:31.113Z,1.60
2023-01-10T07:06:02.386Z,1.37
2023-01-10T07:08:30.522Z,1.00
2023-01-10T07:11:00.543Z,2.07
2023-01-10T07:13:28.537Z,1.67
2023-01-10T07:16:04.542Z,1.33
2023-01-10T07:18:33.084Z,2.03
2023-01-10T07:21:01.017Z,1.10
2023-01-10T07:23:31.105Z,1.43
2023-01-10T07:25:59.227Z,1.23
2023-01-10T07:28:27.176Z,1.63
2023-01-10T07:30:55.096Z,1.30
2023-01-10T07:33:24.370Z,1.73
2023-01-10T07:35:52.295Z,1.30
2023-01-10T07:38:20.234Z,1.63
2023-01-10T07:40:48.275Z,1.80
2023-01-10T07:43:16.372Z,2.17
2023-01-10T07:45:44.272Z,1.07
2023-01-10T07:48:12.673Z,1.37
2023-01-10T07:50:42.020Z,1.20
2023-01-10T07:53:10.580Z,1.10
2023-01-10T07:55:39.774Z,1.50
2023-01-10T07:58:08.948Z,1.70
2023-01-10T08:00:36.978Z,1.30
2023-01-10T08:03:06.366Z,1.67
2023-01-10T08:05:34.474Z,1.60
2023-01-10T08:08:06.957Z,1.30
2023-01-10T08:10:35.450Z,1.00
2023-01-10T08:13:17.869Z,1.30
2023-01-10T08:15:47.209Z,1.43
2023-01-10T08:18:15.516Z,1.70
2023-01-10T08:20:43.433Z,1.53
2023-01-10T08:23:12.712Z,1.10
2023-01-10T08:25:40.634Z,1.13
2023-01-10T08:28:08.611Z,3.80
2023-01-10T08:30:36.548Z,1.23
2023-01-10T08:33:05.112Z,1.20
2023-01-10T08:35:37.250Z,2.13
2023-01-10T08:38:05.243Z,1.63
2023-01-10T08:40:34.571Z,1.33
2023-01-10T08:43:04.147Z,1.60
2023-01-10T08:45:32.179Z,1.40
2023-01-10T08:48:00.398Z,1.60
2023-01-10T08:50:28.357Z,1.50
2023-01-10T08:52:58.726Z,1.17
2023-01-10T08:55:26.825Z,1.33
2023-01-10T08:57:56.165Z,1.77
2023-01-10T09:00:24.631Z,1.50
2023-01-10T09:02:52.624Z,1.80
2023-01-10T09:05:28.513Z,0.90
2023-01-10T09:07:59.721Z,1.73
2023-01-10T09:10:27.855Z,1.20
2023-01-10T09:13:00.006Z,0.93
2023-01-10T09:15:30.581Z,0.90
2023-01-10T09:17:59.992Z,1.60
2023-01-10T09:20:29.073Z,1.10
2023-01-10T09:22:57.491Z,3.73
2023-01-10T09:25:25.762Z,1.97
2023-01-10T09:27:59.886Z,1.30
2023-01-10T09:30:28.356Z,1.40
2023-01-10T09:32:56.701Z,1.17
2023-01-10T09:35:25.223Z,0.73
2023-01-10T09:37:55.237Z,1.20
2023-01-10T09:40:33.289Z,1.10
2023-01-10T09:43:09.886Z,1.03
2023-01-10T09:45:42.473Z,1.50
2023-01-10T09:48:13.435Z,2.50
2023-01-10T09:50:47.379Z,1.33
2023-01-10T09:53:19.257Z,1.50
2023-01-10T09:55:47.563Z,1.00
2023-01-10T09:58:18.928Z,1.60
2023-01-10T10:00:52.056Z,1.40
2023-01-10T10:03:25.434Z,1.57
2023-01-10T10:06:00.830Z,1.10
2023-01-10T10:08:35.138Z,1.37
2023-01-10T10:11:12.098Z,1.43
2023-01-10T10:13:49.900Z,1.37
2023-01-10T10:16:26.429Z,1.40
2023-01-10T10:19:03.879Z,1.63
2023-01-10T10:21:38.957Z,1.83
2023-01-10T10:24:18.123Z,1.33
2023-01-10T10:26:50.977Z,1.67
2023-01-10T10:29:49.631Z,1.33
2023-01-10T10:32:43.803Z,1.60
2023-01-10T10:35:15.315Z,1.77
2023-01-10T10:37:46.479Z,0.90
2023-01-10T10:40:19.743Z,1.50
2023-01-10T10:42:50.500Z,1.60
2023-01-10T10:45:22.998Z,1.60
2023-01-10T10:47:56.421Z,1.80
2023-01-10T10:50:30.470Z,1.40
2023-01-10T10:53:01.036Z,2.13
2023-01-10T10:55:31.221Z,1.23
2023-01-10T10:58:00.826Z,1.20
2023-01-10T11:00:31.286Z,1.30
2023-01-10T11:03:02.723Z,1.40
2023-01-10T11:05:34.223Z,1.77
2023-01-10T11:08:06.309Z,1.80
2023-01-10T11:10:38.437Z,1.90
2023-01-10T11:13:13.511Z,1.40
2023-01-10T11:15:44.136Z,2.07
2023-01-10T11:18:14.539Z,1.50
2023-01-10T11:20:50.349Z,1.40
2023-01-10T11:23:27.608Z,1.93
2023-01-10T11:25:55.598Z,2.80
2023-01-10T11:28:27.698Z,1.10
2023-01-10T11:30:57.414Z,1.00
2023-01-10T11:33:28.969Z,1.20
2023-01-10T11:36:04.747Z,0.80
2023-01-10T11:38:33.110Z,1.33
2023-01-10T11:41:02.472Z,1.00
2023-01-10T11:43:34.212Z,1.10
2023-01-10T11:46:05.689Z,1.00
2023-01-10T11:49:04.425Z,1.40
2023-01-10T11:51:35.419Z,1.00
2023-01-10T11:54:06.517Z,1.43
2023-01-10T11:56:35.902Z,0.80
2023-01-10T11:59:12.495Z,2.90
2023-01-10T12:01:44.212Z,1.47
2023-01-10T12:04:15.675Z,1.20
2023-01-10T12:06:45.093Z,2.00
2023-01-10T12:09:34.807Z,1.23
2023-01-10T12:12:04.266Z,1.60
2023-01-10T12:14:32.386Z,1.20
2023-01-10T12:17:03.981Z,3.10
2023-01-10T12:19:32.084Z,2.53
2023-01-10T12:22:02.131Z,1.53
2023-01-10T12:24:34.115Z,2.63
2023-01-10T12:27:03.276Z,1.97
2023-01-10T12:29:34.670Z,1.17
2023-01-10T12:32:05.657Z,1.87
2023-01-10T12:34:38.238Z,1.50
2023-01-10T12:37:12.225Z,1.53
2023-01-10T12:39:41.527Z,2.20
2023-01-10T12:42:38.453Z,1.30
2023-01-10T12:45:08.806Z,1.60
2023-01-10T12:47:47.507Z,1.70
2023-01-10T12:50:18.904Z,2.10
2023-01-10T12:52:50.203Z,2.13
2023-01-10T12:55:18.770Z,1.60
2023-01-10T12:57:51.891Z,2.50
2023-01-10T13:00:24.377Z,1.33
2023-01-10T13:02:55.946Z,1.53
2023-01-10T13:05:26.049Z,1.60
2023-01-10T13:07:57.376Z,1.50
2023-01-10T13:10:26.265Z,1.30
2023-01-10T13:12:57.982Z,1.93
2023-01-10T13:15:28.796Z,2.83
2023-01-10T13:18:01.757Z,4.00
2023-01-10T13:20:40.784Z,2.60
2023-01-10T13:23:21.981Z,2.73
2023-01-10T13:25:58.031Z,1.10
2023-01-10T13:28:28.490Z,1.57
2023-01-10T13:30:58.096Z,1.40
2023-01-10T13:33:28.760Z,0.90
2023-01-10T13:35:59.031Z,1.80
2023-01-10T13:38:29.806Z,1.53
2023-01-10T13:41:03.046Z,1.50
2023-01-10T13:44:00.863Z,1.77
2023-01-10T13:46:43.776Z,1.27
2023-01-10T13:49:45.378Z,1.53
2023-01-10T13:52:35.129Z,1.40
2023-01-10T13:55:22.281Z,1.60
2023-01-10T13:57:52.499Z,1.27
2023-01-10T14:01:13.136Z,0.90
2023-01-10T14:03:45.325Z,2.77
2023-01-10T14:06:37.967Z,1.10
2023-01-10T14:09:28.795Z,1.50
2023-01-10T14:11:59.441Z,1.60
2023-01-10T14:14:30.194Z,1.77
2023-01-10T14:16:59.346Z,1.80
2023-01-10T14:19:30.792Z,1.87
2023-01-10T14:22:00.643Z,1.50
2023-01-10T14:24:31.754Z,1.40
2023-01-10T14:27:01.425Z,1.30
2023-01-10T14:29:32.642Z,1.43
2023-01-10T14:32:01.687Z,1.90
2023-01-10T14:34:32.565Z,2.50
2023-01-10T14:37:03.068Z,2.20
2023-01-10T14:39:31.511Z,1.50
2023-01-10T14:42:00.939Z,2.03
2023-01-10T14:44:32.125Z,1.90
2023-01-10T14:47:03.050Z,2.43
2023-01-10T14:49:35.759Z,2.20
2023-01-10T14:52:14.096Z,1.90
2023-01-10T14:54:42.094Z,1.57
2023-01-10T14:57:18.860Z,1.73
2023-01-10T14:59:47.168Z,1.47
2023-01-10T15:02:21.974Z,1.43
2023-01-10T15:04:54.937Z,1.70
2023-01-10T15:07:23.969Z,1.80
2023-01-10T15:09:53.060Z,2.70
2023-01-10T15:12:21.833Z,0.97
2023-01-10T15:14:50.891Z,1.17
2023-01-10T15:17:20.888Z,1.30
2023-01-10T15:19:52.519Z,1.50
2023-01-10T15:22:28.903Z,1.23
2023-01-10T15:25:01.922Z,1.30
2023-01-10T15:27:30.308Z,1.03
2023-01-10T15:29:59.521Z,1.73
2023-01-10T15:32:30.332Z,1.93
2023-01-10T15:34:59.726Z,1.70
2023-01-10T15:37:34.027Z,1.47
2023-01-10T15:40:02.896Z,3.20
2023-01-10T15:42:31.715Z,1.60
2023-01-10T15:45:18.688Z,2.90
2023-01-10T15:47:55.207Z,2.07
2023-01-10T15:50:27.330Z,2.30
2023-01-10T15:52:57.258Z,2.37
2023-01-10T15:55:40.362Z,2.20
2023-01-10T15:58:27.524Z,2.20
2023-01-10T16:00:56.517Z,2.20
2023-01-10T16:03:28.117Z,2.00
2023-01-10T16:05:59.681Z,2.40
2023-01-10T16:08:34.898Z,2.10
2023-01-10T16:11:05.840Z,2.37
2023-01-10T16:13:34.103Z,2.10
2023-01-10T16:16:05.216Z,2.53
2023-01-10T16:18:33.266Z,2.50
2023-01-10T16:21:03.770Z,2.37
2023-01-10T16:23:33.417Z,1.93
2023-01-10T16:26:03.682Z,2.10
2023-01-10T16:28:35.987Z,2.10
2023-01-10T16:31:06.856Z,2.00
2023-01-10T16:33:36.937Z,1.80
2023-01-10T16:36:15.207Z,2.30
2023-01-10T16:38:43.602Z,1.90
2023-01-10T16:41:30.628Z,2.00
2023-01-10T16:43:58.616Z,2.90
2023-01-10T16:46:26.532Z,4.27
2023-01-10T16:48:55.019Z,4.67
2023-01-10T16:51:26.390Z,4.00
2023-01-10T16:53:54.653Z,5.40
2023-01-10T16:56:23.872Z,4.30
2023-01-10T16:58:52.921Z,3.77
2023-01-10T17:01:24.262Z,3.83
2023-01-10T17:03:53.153Z,2.30
2023-01-10T17:06:21.352Z,3.80
2023-01-10T17:08:50.758Z,3.00
2023-01-10T17:11:20.370Z,3.20
2023-01-10T17:13:48.354Z,3.50
2023-01-10T17:16:19.567Z,2.80
2023-01-10T17:18:47.976Z,3.20
2023-01-10T17:21:18.541Z,2.40
2023-01-10T17:23:46.667Z,2.47
2023-01-10T17:26:17.861Z,2.23
2023-01-10T17:28:46.649Z,1.80
2023-01-10T17:31:14.609Z,2.13
2023-01-10T17:33:42.511Z,2.43
2023-01-10T17:36:11.662Z,1.93
2023-01-10T17:38:40.147Z,2.30
2023-01-10T17:41:08.291Z,2.63
2023-01-10T17:43:39.187Z,2.83
2023-01-10T17:46:07.231Z,3.13
2023-01-10T17:48:35.759Z,2.50
2023-01-10T17:51:04.341Z,1.93
2023-01-10T17:53:32.237Z,1.83
2023-01-10T17:56:01.217Z,1.90
2023-01-10T17:58:29.708Z,1.63
2023-01-10T18:00:59.172Z,1.73
2023-01-10T18:03:27.228Z,2.07
2023-01-10T18:05:57.185Z,2.20
2023-01-10T18:08:25.702Z,1.60
2023-01-10T18:10:59.900Z,1.73
2023-01-10T18:13:29.862Z,1.60
2023-01-10T18:15:59.632Z,1.90
2023-01-10T18:18:28.452Z,3.73
2023-01-10T18:21:00.873Z,1.70
2023-01-10T18:23:30.744Z,2.50
2023-01-10T18:26:01.367Z,3.87
2023-01-10T18:28:40.661Z,3.00
2023-01-10T18:31:12.118Z,2.27
2023-01-10T18:33:40.199Z,2.33
2023-01-10T18:36:10.963Z,2.50
2023-01-10T18:38:38.879Z,4.10
2023-01-10T18:41:07.189Z,4.30
2023-01-10T18:43:35.083Z,3.30
2023-01-10T18:46:04.747Z,2.50
2023-01-10T18:48:34.311Z,2.70
2023-01-10T18:51:03.720Z,3.37
2023-01-10T18:53:32.076Z,3.67
2023-01-10T18:56:01.177Z,3.70
2023-01-10T18:58:32.053Z,4.07
2023-01-10T19:01:05.997Z,3.90
2023-01-10T19:03:35.707Z,4.30
2023-01-10T19:06:04.389Z,4.30
2023-01-10T19:08:32.433Z,4.67
2023-01-10T19:11:13.010Z,4.53
2023-01-10T19:13:42.345Z,5.70
2023-01-10T19:16:12.690Z,2.80
2023-01-10T19:18:42.297Z,3.27
2023-01-10T19:21:15.605Z,3.40
2023-01-10T19:23:44.040Z,3.70
2023-01-10T19:26:12.091Z,3.90
2023-01-10T19:28:40.226Z,2.70
2023-01-10T19:31:08.255Z,2.70
2023-01-10T19:33:37.484Z,3.33
2023-01-10T19:36:08.597Z,3.13
2023-01-10T19:38:36.570Z,3.00
2023-01-10T19:41:05.118Z,2.60
2023-01-10T19:43:33.903Z,3.10
2023-01-10T19:46:03.829Z,3.47
2023-01-10T19:48:32.976Z,3.80
2023-01-10T19:51:07.708Z,4.10
2023-01-10T19:53:36.426Z,2.10
2023-01-10T19:56:07.437Z,3.80
2023-01-10T19:58:35.745Z,4.93
2023-01-10T20:01:11.459Z,4.30
2023-01-10T20:03:42.204Z,4.37
2023-01-10T20:06:14.059Z,3.93
2023-01-10T20:08:42.119Z,4.50
2023-01-10T20:11:10.565Z,5.27
2023-01-10T20:13:40.092Z,6.33
2023-01-10T20:16:08.626Z,5.63
2023-01-10T20:18:36.591Z,6.63
2023-01-10T20:21:06.533Z,5.53
2023-01-10T20:23:36.390Z,4.57
2023-01-10T20:26:07.009Z,3.33
2023-01-10T20:28:35.165Z,4.67
2023-01-10T20:31:03.788Z,5.53
2023-01-10T20:33:34.521Z,5.00
2023-01-10T20:36:05.119Z,7.67
2023-01-10T20:38:35.660Z,5.17
2023-01-10T20:41:05.582Z,4.93
2023-01-10T20:43:33.709Z,3.77
2023-01-10T20:46:06.342Z,3.23
2023-01-10T20:48:34.672Z,2.03
2023-01-10T20:51:02.677Z,3.00
2023-01-10T20:53:30.667Z,3.50
2023-01-10T20:56:04.047Z,4.47
2023-01-10T20:58:32.998Z,5.77
2023-01-10T21:01:00.924Z,6.23
2023-01-10T21:03:28.934Z,10.47
2023-01-10T21:05:58.580Z,4.10
2023-01-10T21:08:29.575Z,5.90
2023-01-10T21:10:58.063Z,5.10
2023-01-10T21:13:27.910Z,6.23
2023-01-10T21:15:57.266Z,4.10
2023-01-10T21:18:26.949Z,4.77
2023-01-10T21:20:55.965Z,3.43
2023-01-10T21:23:24.703Z,2.27
2023-01-10T21:25:53.448Z,1.97
2023-01-10T21:28:22.100Z,2.37
2023-01-10T21:30:54.064Z,2.13
2023-01-10T21:33:22.031Z,2.20
2023-01-10T21:35:53.664Z,2.80
2023-01-10T21:38:21.818Z,2.20
2023-01-10T21:40:49.733Z,2.53
2023-01-10T21:43:17.662Z,2.97
2023-01-10T21:45:45.874Z,3.57
2023-01-10T21:48:15.189Z,3.43
2023-01-10T21:50:44.826Z,4.03
2023-01-10T21:53:12.729Z,6.17
2023-01-10T21:55:40.639Z,4.60
2023-01-10T21:58:08.559Z,5.23
2023-01-10T22:00:36.557Z,4.23
2023-01-10T22:03:04.704Z,3.77
2023-01-10T22:05:34.143Z,2.67
2023-01-10T22:08:02.132Z,3.80
2023-01-10T22:10:30.219Z,3.40
2023-01-10T22:12:58.131Z,4.47
2023-01-10T22:15:27.073Z,3.87
2023-01-10T22:17:55.007Z,3.73
2023-01-10T22:20:22.910Z,5.13
2023-01-10T22:22:52.227Z,5.50
2023-01-10T22:25:20.150Z,8.90
2023-01-10T22:27:48.050Z,7.80
2023-01-10T22:30:16.211Z,6.70
2023-01-10T22:32:44.163Z,6.73
2023-01-10T22:35:13.781Z,5.70
2023-01-10T22:37:41.827Z,5.30
2023-01-10T22:40:12.677Z,4.20
2023-01-10T22:42:40.553Z,5.40
2023-01-10T22:45:09.371Z,3.63
2023-01-10T22:47:38.402Z,4.87
2023-01-10T22:50:07.300Z,4.20
2023-01-10T22:52:35.235Z,7.23
2023-01-10T22:55:03.193Z,5.47
2023-01-10T22:57:33.225Z,3.87
2023-01-10T23:00:01.196Z,5.53
2023-01-10T23:02:29.308Z,6.73
2023-01-10T23:04:57.312Z,4.83
2023-01-10T23:07:25.299Z,5.10
2023-01-10T23:09:53.242Z,6.57
2023-01-10T23:12:21.131Z,5.20
2023-01-10T23:14:50.499Z,4.90
2023-01-10T23:17:18.451Z,6.77
2023-01-10T23:19:46.367Z,5.90
2023-01-10T23:22:14.289Z,8.90
2023-01-10T23:24:42.172Z,6.47
2023-01-10T23:27:10.221Z,7.80
2023-01-10T23:29:38.182Z,9.57
2023-01-10T23:32:07.641Z,8.10
2023-01-10T23:34:35.633Z,5.67
2023-01-10T23:37:03.668Z,4.80
2023-01-10T23:39:31.643Z,8.97
2023-01-10T23:41:59.613Z,7.70
2023-01-10T23:44:28.840Z,7.70
2023-01-10T23:46:57.064Z,4.70
2023-01-10T23:49:26.383Z,5.47
2023-01-10T23:51:54.299Z,5.37
2023-01-10T23:54:22.312Z,4.97
2023-01-10T23:56:52.117Z,8.10
2023-01-10T23:59:20.470Z,8.27
